sensor_id;sensor_type;location;lat;lon;timestamp;P1;durP1;ratioP1;P2;durP2;ratioP2
7719;SDS011;3902;49.474;8.616;2023-02-26T00:01:37;2.53;;;2.20;;
7719;SDS011;3902;49.474;8.616;2023-02-26T00:04:05;6.40;;;2.60;;
7719;SDS011;3902;49.474;8.616;2023-02-26T00:06:33;3.57;;;2.60;;
7719;SDS011;3902;49.474;8.616;2023-02-26T00:09:00;2.70;;;2.30;;
7719;SDS011;3902;49.474;8.616;2023-02-26T00:11:27;5.37;;;2.80;;
7719;SDS011;3902;49.474;8.616;2023-02-26T00:13:53;3.50;;;2.77;;
7719;SDS011;3902;49.474;8.616;2023-02-26T00:16:29;4.10;;;2.33;;
7719;SDS011;3902;49.474;8.616;2023-02-26T00:19:00;3.00;;;2.40;;
7719;SDS011;3902;49.474;8.616;2023-02-26T00:21:28;4.00;;;2.60;;
7719;SDS011;3902;49.474;8.616;2023-02-26T00:23:55;4.00;;;2.80;;
7719;SDS011;3902;49.474;8.616;2023-02-26T00:26:21;6.80;;;2.67;;
7719;SDS011;3902;49.474;8.616;2023-02-26T00:28:47;3.40;;;2.33;;
7719;SDS011;3902;49.474;8.616;2023-02-26T00:31:14;3.83;;;2.50;;
7719;SDS011;3902;49.474;8.616;2023-02-26T00:33:40;5.10;;;2.83;;
7719;SDS011;3902;49.474;8.616;2023-02-26T00:39:18;3.70;;;2.87;;
7719;SDS011;3902;49.474;8.616;2023-02-26T00:41:56;3.57;;;2.60;;
7719;SDS011;3902;49.474;8.616;2023-02-26T00:44:22;5.17;;;2.50;;
7719;SDS011;3902;49.474;8.616;2023-02-26T00:49:26;3.80;;;2.77;;
7719;SDS011;3902;49.474;8.616;2023-02-26T00:52:01;3.70;;;2.67;;
7719;SDS011;3902;49.474;8.616;2023-02-26T00:54:30;6.60;;;2.30;;
7719;SDS011;3902;49.474;8.616;2023-02-26T00:56:57;3.43;;;2.30;;
7719;SDS011;3902;49.474;8.616;2023-02-26T00:59:23;5.27;;;2.70;;
7719;SDS011;3902;49.474;8.616;2023-02-26T01:01:50;4.43;;;3.00;;
7719;SDS011;3902;49.474;8.616;2023-02-26T01:04:17;3.40;;;2.50;;
7719;SDS011;3902;49.474;8.616;2023-02-26T01:06:47;3.30;;;2.60;;
7719;SDS011;3902;49.474;8.616;2023-02-26T01:11:54;3.97;;;2.73;;
7719;SDS011;3902;49.474;8.616;2023-02-26T01:14:21;3.30;;;2.50;;
7719;SDS011;3902;49.474;8.616;2023-02-26T01:16:50;6.30;;;2.50;;
7719;SDS011;3902;49.474;8.616;2023-02-26T01:22:36;3.03;;;2.73;;
7719;SDS011;3902;49.474;8.616;2023-02-26T01:25:09;4.17;;;2.20;;
7719;SDS011;3902;49.474;8.616;2023-02-26T01:27:40;2.90;;;2.47;;
7719;SDS011;3902;49.474;8.616;2023-02-26T01:30:06;4.53;;;2.67;;
7719;SDS011;3902;49.474;8.616;2023-02-26T01:32:47;4.03;;;2.70;;
7719;SDS011;3902;49.474;8.616;2023-02-26T01:37:56;3.77;;;3.00;;
7719;SDS011;3902;49.474;8.616;2023-02-26T01:43:50;4.73;;;3.00;;
7719;SDS011;3902;49.474;8.616;2023-02-26T01:46:30;3.07;;;2.70;;
7719;SDS011;3902;49.474;8.616;2023-02-26T01:49:15;4.43;;;2.80;;
7719;SDS011;3902;49.474;8.616;2023-02-26T01:54:19;4.37;;;2.73;;
7719;SDS011;3902;49.474;8.616;2023-02-26T01:56:48;3.97;;;2.80;;
7719;SDS011;3902;49.474;8.616;2023-02-26T01:59:23;3.37;;;2.40;;
7719;SDS011;3902;49.474;8.616;2023-02-26T02:01:50;3.90;;;2.73;;
7719;SDS011;3902;49.474;8.616;2023-02-26T02:04:17;4.93;;;2.57;;
7719;SDS011;3902;49.474;8.616;2023-02-26T02:06:43;3.07;;;2.60;;
7719;SDS011;3902;49.474;8.616;2023-02-26T02:09:10;3.67;;;2.30;;
7719;SDS011;3902;49.474;8.616;2023-02-26T02:11:39;3.83;;;2.43;;
7719;SDS011;3902;49.474;8.616;2023-02-26T02:14:26;3.13;;;2.33;;
7719;SDS011;3902;49.474;8.616;2023-02-26T02:25:22;4.03;;;2.67;;
7719;SDS011;3902;49.474;8.616;2023-02-26T02:28:13;3.37;;;2.70;;
7719;SDS011;3902;49.474;8.616;2023-02-26T02:31:13;4.23;;;2.50;;
7719;SDS011;3902;49.474;8.616;2023-02-26T02:33:54;6.03;;;2.30;;
7719;SDS011;3902;49.474;8.616;2023-02-26T02:36:40;3.03;;;2.60;;
7719;SDS011;3902;49.474;8.616;2023-02-26T02:39:15;3.60;;;2.67;;
7719;SDS011;3902;49.474;8.616;2023-02-26T02:44:38;3.77;;;2.47;;
7719;SDS011;3902;49.474;8.616;2023-02-26T02:47:08;2.90;;;2.20;;
7719;SDS011;3902;49.474;8.616;2023-02-26T02:49:38;2.63;;;2.30;;
7719;SDS011;3902;49.474;8.616;2023-02-26T02:52:29;2.97;;;2.40;;
7719;SDS011;3902;49.474;8.616;2023-02-26T02:55:20;2.83;;;2.27;;
7719;SDS011;3902;49.474;8.616;2023-02-26T02:57:55;2.70;;;2.00;;
7719;SDS011;3902;49.474;8.616;2023-02-26T03:00:25;3.63;;;2.57;;
7719;SDS011;3902;49.474;8.616;2023-02-26T03:02:59;5.80;;;2.87;;
7719;SDS011;3902;49.474;8.616;2023-02-26T03:05:35;2.40;;;2.03;;
7719;SDS011;3902;49.474;8.616;2023-02-26T03:08:02;2.63;;;2.33;;
7719;SDS011;3902;49.474;8.616;2023-02-26T03:10:32;3.80;;;2.37;;
7719;SDS011;3902;49.474;8.616;2023-02-26T03:12:59;2.43;;;2.23;;
7719;SDS011;3902;49.474;8.616;2023-02-26T03:15:32;2.87;;;2.30;;
7719;SDS011;3902;49.474;8.616;2023-02-26T03:18:12;2.47;;;2.27;;
7719;SDS011;3902;49.474;8.616;2023-02-26T03:21:03;2.27;;;2.07;;
7719;SDS011;3902;49.474;8.616;2023-02-26T03:23:51;3.73;;;2.73;;
7719;SDS011;3902;49.474;8.616;2023-02-26T03:26:44;3.30;;;2.43;;
7719;SDS011;3902;49.474;8.616;2023-02-26T03:32:09;3.50;;;2.50;;
7719;SDS011;3902;49.474;8.616;2023-02-26T03:34:44;4.87;;;2.57;;
7719;SDS011;3902;49.474;8.616;2023-02-26T03:37:24;4.10;;;2.30;;
7719;SDS011;3902;49.474;8.616;2023-02-26T03:39:55;4.30;;;2.83;;
7719;SDS011;3902;49.474;8.616;2023-02-26T03:42:28;6.13;;;2.87;;
7719;SDS011;3902;49.474;8.616;2023-02-26T03:45:11;7.60;;;3.00;;
7719;SDS011;3902;49.474;8.616;2023-02-26T03:47:40;4.57;;;3.07;;
7719;SDS011;3902;49.474;8.616;2023-02-26T03:50:11;4.80;;;3.13;;
7719;SDS011;3902;49.474;8.616;2023-02-26T03:52:38;7.73;;;3.37;;
7719;SDS011;3902;49.474;8.616;2023-02-26T03:55:08;5.33;;;3.80;;
7719;SDS011;3902;49.474;8.616;2023-02-26T03:57:43;5.00;;;3.23;;
7719;SDS011;3902;49.474;8.616;2023-02-26T04:00:10;3.87;;;3.30;;
7719;SDS011;3902;49.474;8.616;2023-02-26T04:02:43;4.10;;;3.20;;
7719;SDS011;3902;49.474;8.616;2023-02-26T04:05:17;4.87;;;3.37;;
7719;SDS011;3902;49.474;8.616;2023-02-26T04:07:45;4.70;;;3.47;;
7719;SDS011;3902;49.474;8.616;2023-02-26T04:10:16;4.07;;;3.27;;
7719;SDS011;3902;49.474;8.616;2023-02-26T04:12:45;8.67;;;3.27;;
7719;SDS011;3902;49.474;8.616;2023-02-26T04:15:11;5.03;;;3.40;;
7719;SDS011;3902;49.474;8.616;2023-02-26T04:17:36;4.93;;;3.30;;
7719;SDS011;3902;49.474;8.616;2023-02-26T04:20:02;7.83;;;3.87;;
7719;SDS011;3902;49.474;8.616;2023-02-26T04:22:32;4.27;;;3.27;;
7719;SDS011;3902;49.474;8.616;2023-02-26T04:24:58;4.77;;;3.30;;
7719;SDS011;3902;49.474;8.616;2023-02-26T04:27:23;4.37;;;3.30;;
7719;SDS011;3902;49.474;8.616;2023-02-26T04:29:49;5.00;;;3.20;;
7719;SDS011;3902;49.474;8.616;2023-02-26T04:32:14;6.47;;;3.47;;
7719;SDS011;3902;49.474;8.616;2023-02-26T04:34:40;7.60;;;4.10;;
7719;SDS011;3902;49.474;8.616;2023-02-26T04:37:05;5.67;;;3.30;;
7719;SDS011;3902;49.474;8.616;2023-02-26T04:39:31;5.23;;;3.30;;
7719;SDS011;3902;49.474;8.616;2023-02-26T04:41:56;6.77;;;3.90;;
7719;SDS011;3902;49.474;8.616;2023-02-26T04:44:22;4.30;;;3.13;;
7719;SDS011;3902;49.474;8.616;2023-02-26T04:46:47;5.17;;;3.30;;
7719;SDS011;3902;49.474;8.616;2023-02-26T04:49:13;4.20;;;3.30;;
7719;SDS011;3902;49.474;8.616;2023-02-26T04:51:38;7.43;;;4.27;;
7719;SDS011;3902;49.474;8.616;2023-02-26T04:54:04;4.27;;;3.27;;
7719;SDS011;3902;49.474;8.616;2023-02-26T04:56:29;4.70;;;3.30;;
7719;SDS011;3902;49.474;8.616;2023-02-26T04:58:56;6.77;;;3.60;;
7719;SDS011;3902;49.474;8.616;2023-02-26T05:01:22;6.30;;;4.00;;
7719;SDS011;3902;49.474;8.616;2023-02-26T05:03:47;6.73;;;4.20;;
7719;SDS011;3902;49.474;8.616;2023-02-26T05:06:13;5.70;;;3.30;;
7719;SDS011;3902;49.474;8.616;2023-02-26T05:08:38;7.80;;;4.27;;
7719;SDS011;3902;49.474;8.616;2023-02-26T05:11:06;5.97;;;4.03;;
7719;SDS011;3902;49.474;8.616;2023-02-26T05:13:33;6.17;;;3.93;;
7719;SDS011;3902;49.474;8.616;2023-02-26T05:15:58;5.17;;;3.70;;
7719;SDS011;3902;49.474;8.616;2023-02-26T05:18:24;5.23;;;3.73;;
7719;SDS011;3902;49.474;8.616;2023-02-26T05:20:53;6.53;;;3.30;;
7719;SDS011;3902;49.474;8.616;2023-02-26T05:23:19;5.17;;;3.60;;
7719;SDS011;3902;49.474;8.616;2023-02-26T05:25:46;5.87;;;3.40;;
7719;SDS011;3902;49.474;8.616;2023-02-26T05:28:12;5.93;;;3.50;;
7719;SDS011;3902;49.474;8.616;2023-02-26T05:30:38;4.87;;;3.73;;
7719;SDS011;3902;49.474;8.616;2023-02-26T05:33:04;3.10;;;2.80;;
7719;SDS011;3902;49.474;8.616;2023-02-26T05:35:29;3.57;;;2.70;;
7719;SDS011;3902;49.474;8.616;2023-02-26T05:37:55;7.83;;;3.20;;
7719;SDS011;3902;49.474;8.616;2023-02-26T05:40:20;3.47;;;2.60;;
7719;SDS011;3902;49.474;8.616;2023-02-26T05:42:47;5.70;;;2.73;;
7719;SDS011;3902;49.474;8.616;2023-02-26T05:45:12;5.00;;;2.40;;
7719;SDS011;3902;49.474;8.616;2023-02-26T05:47:38;3.77;;;2.40;;
7719;SDS011;3902;49.474;8.616;2023-02-26T05:50:04;3.90;;;2.60;;
7719;SDS011;3902;49.474;8.616;2023-02-26T05:52:30;3.63;;;2.20;;
7719;SDS011;3902;49.474;8.616;2023-02-26T05:54:56;2.30;;;1.90;;
7719;SDS011;3902;49.474;8.616;2023-02-26T05:57:22;3.50;;;2.40;;
7719;SDS011;3902;49.474;8.616;2023-02-26T05:59:48;3.57;;;2.40;;
7719;SDS011;3902;49.474;8.616;2023-02-26T06:02:14;3.33;;;2.23;;
7719;SDS011;3902;49.474;8.616;2023-02-26T06:04:40;3.07;;;2.17;;
7719;SDS011;3902;49.474;8.616;2023-02-26T06:07:05;4.27;;;2.10;;
7719;SDS011;3902;49.474;8.616;2023-02-26T06:09:31;3.40;;;2.00;;
7719;SDS011;3902;49.474;8.616;2023-02-26T06:11:56;2.60;;;2.10;;
7719;SDS011;3902;49.474;8.616;2023-02-26T06:14:22;3.83;;;2.33;;
7719;SDS011;3902;49.474;8.616;2023-02-26T06:16:47;2.83;;;1.90;;
7719;SDS011;3902;49.474;8.616;2023-02-26T06:19:13;3.77;;;2.17;;
7719;SDS011;3902;49.474;8.616;2023-02-26T06:21:38;2.17;;;1.63;;
7719;SDS011;3902;49.474;8.616;2023-02-26T06:24:04;3.53;;;1.67;;
7719;SDS011;3902;49.474;8.616;2023-02-26T06:26:30;2.23;;;1.60;;
7719;SDS011;3902;49.474;8.616;2023-02-26T06:28:56;1.67;;;1.50;;
7719;SDS011;3902;49.474;8.616;2023-02-26T06:31:23;2.13;;;1.83;;
7719;SDS011;3902;49.474;8.616;2023-02-26T06:33:48;3.30;;;1.70;;
7719;SDS011;3902;49.474;8.616;2023-02-26T06:36:14;4.10;;;1.90;;
7719;SDS011;3902;49.474;8.616;2023-02-26T06:38:39;2.13;;;1.70;;
7719;SDS011;3902;49.474;8.616;2023-02-26T06:41:06;1.90;;;1.53;;
7719;SDS011;3902;49.474;8.616;2023-02-26T06:43:31;4.53;;;1.80;;
7719;SDS011;3902;49.474;8.616;2023-02-26T06:45:57;3.10;;;2.10;;
7719;SDS011;3902;49.474;8.616;2023-02-26T06:48:24;2.80;;;2.23;;
7719;SDS011;3902;49.474;8.616;2023-02-26T06:50:50;2.83;;;1.93;;
7719;SDS011;3902;49.474;8.616;2023-02-26T06:53:15;2.70;;;1.93;;
7719;SDS011;3902;49.474;8.616;2023-02-26T06:55:44;5.10;;;2.40;;
7719;SDS011;3902;49.474;8.616;2023-02-26T06:58:11;2.70;;;1.70;;
7719;SDS011;3902;49.474;8.616;2023-02-26T07:00:37;3.77;;;1.90;;
7719;SDS011;3902;49.474;8.616;2023-02-26T07:03:04;3.50;;;2.13;;
7719;SDS011;3902;49.474;8.616;2023-02-26T07:05:29;3.60;;;2.17;;
7719;SDS011;3902;49.474;8.616;2023-02-26T07:07:55;2.97;;;1.90;;
7719;SDS011;3902;49.474;8.616;2023-02-26T07:10:21;4.90;;;2.50;;
7719;SDS011;3902;49.474;8.616;2023-02-26T07:12:48;2.57;;;1.80;;
7719;SDS011;3902;49.474;8.616;2023-02-26T07:15:14;2.30;;;1.83;;
7719;SDS011;3902;49.474;8.616;2023-02-26T07:17:40;2.40;;;1.90;;
7719;SDS011;3902;49.474;8.616;2023-02-26T07:20:06;2.40;;;1.80;;
7719;SDS011;3902;49.474;8.616;2023-02-26T07:22:34;2.60;;;1.80;;
7719;SDS011;3902;49.474;8.616;2023-02-26T07:25:01;3.70;;;2.10;;
7719;SDS011;3902;49.474;8.616;2023-02-26T07:27:27;5.37;;;1.97;;
7719;SDS011;3902;49.474;8.616;2023-02-26T07:29:53;2.07;;;1.70;;
7719;SDS011;3902;49.474;8.616;2023-02-26T07:32:19;3.50;;;2.13;;
7719;SDS011;3902;49.474;8.616;2023-02-26T07:34:45;4.77;;;2.00;;
7719;SDS011;3902;49.474;8.616;2023-02-26T07:37:11;2.27;;;1.70;;
7719;SDS011;3902;49.474;8.616;2023-02-26T07:39:36;2.33;;;1.87;;
7719;SDS011;3902;49.474;8.616;2023-02-26T07:42:02;2.93;;;1.97;;
7719;SDS011;3902;49.474;8.616;2023-02-26T07:44:27;6.60;;;1.90;;
7719;SDS011;3902;49.474;8.616;2023-02-26T07:46:53;2.73;;;1.80;;
7719;SDS011;3902;49.474;8.616;2023-02-26T07:49:18;4.20;;;2.20;;
7719;SDS011;3902;49.474;8.616;2023-02-26T07:51:44;2.77;;;2.03;;
7719;SDS011;3902;49.474;8.616;2023-02-26T07:54:10;3.03;;;1.60;;
7719;SDS011;3902;49.474;8.616;2023-02-26T07:56:37;2.67;;;2.17;;
7719;SDS011;3902;49.474;8.616;2023-02-26T07:59:03;2.70;;;2.00;;
7719;SDS011;3902;49.474;8.616;2023-02-26T08:01:29;3.40;;;2.00;;
7719;SDS011;3902;49.474;8.616;2023-02-26T08:03:54;2.83;;;2.00;;
7719;SDS011;3902;49.474;8.616;2023-02-26T08:06:20;2.63;;;1.77;;
7719;SDS011;3902;49.474;8.616;2023-02-26T08:08:46;3.37;;;1.80;;
7719;SDS011;3902;49.474;8.616;2023-02-26T08:11:11;5.20;;;2.60;;
7719;SDS011;3902;49.474;8.616;2023-02-26T08:13:37;3.17;;;2.07;;
7719;SDS011;3902;49.474;8.616;2023-02-26T08:16:02;2.10;;;1.90;;
7719;SDS011;3902;49.474;8.616;2023-02-26T08:18:28;1.80;;;1.70;;
7719;SDS011;3902;49.474;8.616;2023-02-26T08:20:54;3.90;;;2.40;;
7719;SDS011;3902;49.474;8.616;2023-02-26T08:23:19;2.47;;;2.10;;
7719;SDS011;3902;49.474;8.616;2023-02-26T08:25:45;3.30;;;2.10;;
7719;SDS011;3902;49.474;8.616;2023-02-26T08:28:11;2.40;;;2.00;;
7719;SDS011;3902;49.474;8.616;2023-02-26T08:30:36;4.63;;;2.50;;
7719;SDS011;3902;49.474;8.616;2023-02-26T08:33:02;3.37;;;2.50;;
7719;SDS011;3902;49.474;8.616;2023-02-26T08:35:28;3.57;;;2.50;;
7719;SDS011;3902;49.474;8.616;2023-02-26T08:37:54;3.17;;;2.63;;
7719;SDS011;3902;49.474;8.616;2023-02-26T08:40:20;4.13;;;2.63;;
7719;SDS011;3902;49.474;8.616;2023-02-26T08:42:45;3.07;;;2.33;;
7719;SDS011;3902;49.474;8.616;2023-02-26T08:45:11;3.60;;;2.50;;
7719;SDS011;3902;49.474;8.616;2023-02-26T08:47:36;3.23;;;2.50;;
7719;SDS011;3902;49.474;8.616;2023-02-26T08:50:05;2.73;;;2.53;;
7719;SDS011;3902;49.474;8.616;2023-02-26T08:52:31;3.53;;;3.00;;
7719;SDS011;3902;49.474;8.616;2023-02-26T08:54:57;4.33;;;3.40;;
7719;SDS011;3902;49.474;8.616;2023-02-26T08:57:23;4.63;;;3.00;;
7719;SDS011;3902;49.474;8.616;2023-02-26T08:59:49;3.63;;;2.43;;
7719;SDS011;3902;49.474;8.616;2023-02-26T09:02:14;4.33;;;2.60;;
7719;SDS011;3902;49.474;8.616;2023-02-26T09:04:40;4.60;;;3.13;;
7719;SDS011;3902;49.474;8.616;2023-02-26T09:07:05;5.20;;;3.60;;
7719;SDS011;3902;49.474;8.616;2023-02-26T09:09:31;3.73;;;3.13;;
7719;SDS011;3902;49.474;8.616;2023-02-26T09:11:56;3.10;;;2.53;;
7719;SDS011;3902;49.474;8.616;2023-02-26T09:14:23;4.63;;;3.20;;
7719;SDS011;3902;49.474;8.616;2023-02-26T09:16:48;3.30;;;3.00;;
7719;SDS011;3902;49.474;8.616;2023-02-26T09:19:14;2.90;;;2.60;;
7719;SDS011;3902;49.474;8.616;2023-02-26T09:21:39;4.60;;;2.50;;
7719;SDS011;3902;49.474;8.616;2023-02-26T09:24:05;2.70;;;2.10;;
7719;SDS011;3902;49.474;8.616;2023-02-26T09:26:30;2.60;;;2.10;;
7719;SDS011;3902;49.474;8.616;2023-02-26T09:28:56;2.07;;;1.83;;
7719;SDS011;3902;49.474;8.616;2023-02-26T09:31:21;3.53;;;2.07;;
7719;SDS011;3902;49.474;8.616;2023-02-26T09:33:47;5.10;;;1.90;;
7719;SDS011;3902;49.474;8.616;2023-02-26T09:36:13;3.27;;;2.20;;
7719;SDS011;3902;49.474;8.616;2023-02-26T09:38:38;2.10;;;1.70;;
7719;SDS011;3902;49.474;8.616;2023-02-26T09:41:06;2.63;;;2.00;;
7719;SDS011;3902;49.474;8.616;2023-02-26T09:54:47;2.43;;;2.03;;
7719;SDS011;3902;49.474;8.616;2023-02-26T09:57:21;2.80;;;1.97;;
7719;SDS011;3902;49.474;8.616;2023-02-26T09:59:54;2.07;;;1.87;;
7719;SDS011;3902;49.474;8.616;2023-02-26T10:02:27;1.93;;;1.73;;
7719;SDS011;3902;49.474;8.616;2023-02-26T10:05:08;2.50;;;1.90;;
7719;SDS011;3902;49.474;8.616;2023-02-26T10:07:54;2.50;;;1.90;;
7719;SDS011;3902;49.474;8.616;2023-02-26T10:13:21;3.13;;;1.90;;
7719;SDS011;3902;49.474;8.616;2023-02-26T10:16:10;2.70;;;1.87;;
7719;SDS011;3902;49.474;8.616;2023-02-26T10:18:43;2.80;;;2.00;;
7719;SDS011;3902;49.474;8.616;2023-02-26T10:21:19;2.70;;;1.90;;
7719;SDS011;3902;49.474;8.616;2023-02-26T10:23:51;2.10;;;1.70;;
7719;SDS011;3902;49.474;8.616;2023-02-26T10:26:39;2.03;;;1.43;;
7719;SDS011;3902;49.474;8.616;2023-02-26T10:32:05;1.70;;;1.30;;
7719;SDS011;3902;49.474;8.616;2023-02-26T10:43:20;1.77;;;1.30;;
7719;SDS011;3902;49.474;8.616;2023-02-26T10:51:27;1.60;;;1.20;;
7719;SDS011;3902;49.474;8.616;2023-02-26T10:56:53;2.03;;;1.23;;
7719;SDS011;3902;49.474;8.616;2023-02-26T10:59:19;1.50;;;1.30;;
7719;SDS011;3902;49.474;8.616;2023-02-26T11:01:45;1.30;;;1.20;;
7719;SDS011;3902;49.474;8.616;2023-02-26T11:04:13;1.20;;;1.00;;
7719;SDS011;3902;49.474;8.616;2023-02-26T11:06:46;1.30;;;1.07;;
7719;SDS011;3902;49.474;8.616;2023-02-26T11:11:47;1.60;;;1.20;;
7719;SDS011;3902;49.474;8.616;2023-02-26T11:14:15;1.40;;;1.30;;
7719;SDS011;3902;49.474;8.616;2023-02-26T11:16:46;1.70;;;1.40;;
7719;SDS011;3902;49.474;8.616;2023-02-26T11:19:18;2.63;;;1.47;;
7719;SDS011;3902;49.474;8.616;2023-02-26T11:21:49;1.60;;;1.13;;
7719;SDS011;3902;49.474;8.616;2023-02-26T11:24:37;1.77;;;1.20;;
7719;SDS011;3902;49.474;8.616;2023-02-26T11:27:12;1.20;;;1.00;;
7719;SDS011;3902;49.474;8.616;2023-02-26T11:29:40;1.33;;;1.20;;
7719;SDS011;3902;49.474;8.616;2023-02-26T11:32:18;1.00;;;0.90;;
7719;SDS011;3902;49.474;8.616;2023-02-26T11:34:49;1.20;;;1.10;;
7719;SDS011;3902;49.474;8.616;2023-02-26T11:37:22;1.00;;;0.90;;
7719;SDS011;3902;49.474;8.616;2023-02-26T11:39:55;1.83;;;1.13;;
7719;SDS011;3902;49.474;8.616;2023-02-26T11:42:29;1.10;;;1.00;;
7719;SDS011;3902;49.474;8.616;2023-02-26T11:45:02;1.40;;;1.03;;
7719;SDS011;3902;49.474;8.616;2023-02-26T11:47:30;1.57;;;1.30;;
7719;SDS011;3902;49.474;8.616;2023-02-26T11:50:01;1.07;;;0.97;;
7719;SDS011;3902;49.474;8.616;2023-02-26T11:52:33;1.07;;;0.97;;
7719;SDS011;3902;49.474;8.616;2023-02-26T11:55:14;3.60;;;1.20;;
7719;SDS011;3902;49.474;8.616;2023-02-26T11:57:49;1.40;;;1.30;;
7719;SDS011;3902;49.474;8.616;2023-02-26T12:00:22;1.30;;;1.17;;
7719;SDS011;3902;49.474;8.616;2023-02-26T12:02:50;1.30;;;1.00;;
7719;SDS011;3902;49.474;8.616;2023-02-26T12:05:20;1.10;;;0.90;;
7719;SDS011;3902;49.474;8.616;2023-02-26T12:07:46;1.00;;;0.90;;
7719;SDS011;3902;49.474;8.616;2023-02-26T12:10:33;1.10;;;1.00;;
7719;SDS011;3902;49.474;8.616;2023-02-26T12:18:48;2.03;;;1.20;;
7719;SDS011;3902;49.474;8.616;2023-02-26T12:21:56;1.03;;;0.90;;
7719;SDS011;3902;49.474;8.616;2023-02-26T12:27:13;1.00;;;0.90;;
7719;SDS011;3902;49.474;8.616;2023-02-26T12:30:04;1.30;;;1.13;;
7719;SDS011;3902;49.474;8.616;2023-02-26T12:32:52;1.30;;;1.20;;
7719;SDS011;3902;49.474;8.616;2023-02-26T12:38:19;2.40;;;1.17;;
7719;SDS011;3902;49.474;8.616;2023-02-26T12:41:14;1.20;;;1.00;;
7719;SDS011;3902;49.474;8.616;2023-02-26T12:44:08;1.30;;;1.20;;
7719;SDS011;3902;49.474;8.616;2023-02-26T12:46:42;1.77;;;1.10;;
7719;SDS011;3902;49.474;8.616;2023-02-26T12:54:35;1.13;;;0.93;;
7719;SDS011;3902;49.474;8.616;2023-02-26T13:00:12;1.10;;;1.00;;
7719;SDS011;3902;49.474;8.616;2023-02-26T13:13:48;1.87;;;1.00;;
7719;SDS011;3902;49.474;8.616;2023-02-26T13:22:01;1.57;;;1.00;;
7719;SDS011;3902;49.474;8.616;2023-02-26T13:24:35;1.20;;;1.10;;
7719;SDS011;3902;49.474;8.616;2023-02-26T13:27:04;1.50;;;1.30;;
7719;SDS011;3902;49.474;8.616;2023-02-26T13:29:33;1.00;;;0.90;;
7719;SDS011;3902;49.474;8.616;2023-02-26T13:32:05;1.20;;;1.10;;
7719;SDS011;3902;49.474;8.616;2023-02-26T13:34:40;1.73;;;1.10;;
7719;SDS011;3902;49.474;8.616;2023-02-26T13:37:09;1.23;;;1.13;;
7719;SDS011;3902;49.474;8.616;2023-02-26T13:39:54;1.57;;;1.40;;
7719;SDS011;3902;49.474;8.616;2023-02-26T13:42:47;1.20;;;1.10;;
7719;SDS011;3902;49.474;8.616;2023-02-26T13:45:33;1.60;;;1.50;;
7719;SDS011;3902;49.474;8.616;2023-02-26T13:48:34;1.20;;;1.10;;
7719;SDS011;3902;49.474;8.616;2023-02-26T13:51:14;1.20;;;1.10;;
7719;SDS011;3902;49.474;8.616;2023-02-26T13:53:50;1.33;;;1.20;;
7719;SDS011;3902;49.474;8.616;2023-02-26T13:56:22;1.40;;;1.30;;
7719;SDS011;3902;49.474;8.616;2023-02-26T14:06:59;1.10;;;1.00;;
7719;SDS011;3902;49.474;8.616;2023-02-26T14:13:11;1.07;;;0.97;;
7719;SDS011;3902;49.474;8.616;2023-02-26T14:15:52;1.37;;;1.10;;
7719;SDS011;3902;49.474;8.616;2023-02-26T14:18:34;1.30;;;1.10;;
7719;SDS011;3902;49.474;8.616;2023-02-26T14:24:18;1.30;;;1.00;;
7719;SDS011;3902;49.474;8.616;2023-02-26T14:26:46;1.37;;;1.10;;
7719;SDS011;3902;49.474;8.616;2023-02-26T14:32:03;1.40;;;1.20;;
7719;SDS011;3902;49.474;8.616;2023-02-26T14:34:42;1.47;;;1.10;;
7719;SDS011;3902;49.474;8.616;2023-02-26T14:37:16;1.43;;;1.20;;
7719;SDS011;3902;49.474;8.616;2023-02-26T14:39:49;1.30;;;1.20;;
7719;SDS011;3902;49.474;8.616;2023-02-26T14:47:56;1.30;;;1.17;;
7719;SDS011;3902;49.474;8.616;2023-02-26T14:50:23;1.30;;;1.20;;
7719;SDS011;3902;49.474;8.616;2023-02-26T15:07:33;1.30;;;1.13;;
7719;SDS011;3902;49.474;8.616;2023-02-26T15:12:57;1.53;;;1.10;;
7719;SDS011;3902;49.474;8.616;2023-02-26T15:21:03;1.77;;;1.40;;
7719;SDS011;3902;49.474;8.616;2023-02-26T15:26:27;1.37;;;1.10;;
7719;SDS011;3902;49.474;8.616;2023-02-26T15:28:56;2.63;;;1.10;;
7719;SDS011;3902;49.474;8.616;2023-02-26T15:31:32;1.07;;;0.97;;
7719;SDS011;3902;49.474;8.616;2023-02-26T15:34:00;1.40;;;1.20;;
7719;SDS011;3902;49.474;8.616;2023-02-26T15:36:27;1.30;;;1.13;;
7719;SDS011;3902;49.474;8.616;2023-02-26T15:38:56;1.30;;;1.07;;
7719;SDS011;3902;49.474;8.616;2023-02-26T15:41:24;1.30;;;1.20;;
7719;SDS011;3902;49.474;8.616;2023-02-26T15:43:53;1.47;;;1.20;;
7719;SDS011;3902;49.474;8.616;2023-02-26T15:46:26;2.70;;;1.10;;
7719;SDS011;3902;49.474;8.616;2023-02-26T15:49:00;1.30;;;1.20;;
7719;SDS011;3902;49.474;8.616;2023-02-26T15:51:31;1.47;;;1.37;;
7719;SDS011;3902;49.474;8.616;2023-02-26T15:53:57;1.27;;;1.17;;
7719;SDS011;3902;49.474;8.616;2023-02-26T15:56:27;1.73;;;1.47;;
7719;SDS011;3902;49.474;8.616;2023-02-26T15:59:10;1.50;;;1.20;;
7719;SDS011;3902;49.474;8.616;2023-02-26T16:01:41;1.30;;;1.13;;
7719;SDS011;3902;49.474;8.616;2023-02-26T16:04:11;1.40;;;1.10;;
7719;SDS011;3902;49.474;8.616;2023-02-26T16:06:42;2.70;;;1.20;;
7719;SDS011;3902;49.474;8.616;2023-02-26T16:09:19;1.47;;;1.10;;
7719;SDS011;3902;49.474;8.616;2023-02-26T16:11:56;1.20;;;1.10;;
7719;SDS011;3902;49.474;8.616;2023-02-26T16:14:26;2.03;;;1.20;;
7719;SDS011;3902;49.474;8.616;2023-02-26T16:17:00;1.73;;;1.60;;
7719;SDS011;3902;49.474;8.616;2023-02-26T16:22:04;1.70;;;1.60;;
7719;SDS011;3902;49.474;8.616;2023-02-26T16:24:36;1.70;;;1.60;;
7719;SDS011;3902;49.474;8.616;2023-02-26T16:27:04;1.97;;;1.60;;
7719;SDS011;3902;49.474;8.616;2023-02-26T16:29:34;1.60;;;1.50;;
7719;SDS011;3902;49.474;8.616;2023-02-26T16:32:02;1.93;;;1.10;;
7719;SDS011;3902;49.474;8.616;2023-02-26T16:37:34;1.47;;;1.17;;
7719;SDS011;3902;49.474;8.616;2023-02-26T16:39:54;1.50;;;1.20;;
7719;SDS011;3902;49.474;8.616;2023-02-26T16:42:36;1.30;;;1.20;;
7719;SDS011;3902;49.474;8.616;2023-02-26T16:45:21;1.73;;;1.43;;
7719;SDS011;3902;49.474;8.616;2023-02-26T16:48:21;1.93;;;1.40;;
7719;SDS011;3902;49.474;8.616;2023-02-26T16:50:54;2.07;;;1.60;;
7719;SDS011;3902;49.474;8.616;2023-02-26T16:53:29;1.77;;;1.60;;
7719;SDS011;3902;49.474;8.616;2023-02-26T16:56:00;1.73;;;1.30;;
7719;SDS011;3902;49.474;8.616;2023-02-26T16:58:27;1.57;;;1.37;;
7719;SDS011;3902;49.474;8.616;2023-02-26T17:01:27;1.77;;;1.10;;
7719;SDS011;3902;49.474;8.616;2023-02-26T17:03:47;1.30;;;1.20;;
7719;SDS011;3902;49.474;8.616;2023-02-26T17:06:19;2.20;;;1.43;;
7719;SDS011;3902;49.474;8.616;2023-02-26T17:08:49;3.10;;;2.70;;
7719;SDS011;3902;49.474;8.616;2023-02-26T17:11:30;1.90;;;1.60;;
7719;SDS011;3902;49.474;8.616;2023-02-26T17:14:19;1.77;;;1.63;;
7719;SDS011;3902;49.474;8.616;2023-02-26T17:16:48;2.47;;;1.63;;
7719;SDS011;3902;49.474;8.616;2023-02-26T17:19:15;2.27;;;1.80;;
7719;SDS011;3902;49.474;8.616;2023-02-26T17:21:43;2.00;;;1.80;;
7719;SDS011;3902;49.474;8.616;2023-02-26T17:24:15;2.20;;;1.63;;
7719;SDS011;3902;49.474;8.616;2023-02-26T17:27:03;3.53;;;2.63;;
7719;SDS011;3902;49.474;8.616;2023-02-26T17:29:33;3.27;;;2.40;;
7719;SDS011;3902;49.474;8.616;2023-02-26T17:32:04;3.60;;;2.17;;
7719;SDS011;3902;49.474;8.616;2023-02-26T17:34:31;2.57;;;2.17;;
7719;SDS011;3902;49.474;8.616;2023-02-26T17:36:57;2.77;;;2.53;;
7719;SDS011;3902;49.474;8.616;2023-02-26T17:39:23;2.80;;;2.47;;
7719;SDS011;3902;49.474;8.616;2023-02-26T17:41:49;2.97;;;2.63;;
7719;SDS011;3902;49.474;8.616;2023-02-26T17:44:15;3.70;;;2.80;;
7719;SDS011;3902;49.474;8.616;2023-02-26T17:46:41;4.73;;;3.43;;
7719;SDS011;3902;49.474;8.616;2023-02-26T17:49:06;5.50;;;3.53;;
7719;SDS011;3902;49.474;8.616;2023-02-26T17:51:34;6.17;;;4.73;;
7719;SDS011;3902;49.474;8.616;2023-02-26T17:54:00;6.00;;;4.53;;
7719;SDS011;3902;49.474;8.616;2023-02-26T17:56:26;4.83;;;3.80;;
7719;SDS011;3902;49.474;8.616;2023-02-26T17:58:53;4.53;;;3.53;;
7719;SDS011;3902;49.474;8.616;2023-02-26T18:01:20;3.47;;;2.73;;
7719;SDS011;3902;49.474;8.616;2023-02-26T18:03:52;3.17;;;2.20;;
7719;SDS011;3902;49.474;8.616;2023-02-26T18:06:18;3.77;;;2.57;;
7719;SDS011;3902;49.474;8.616;2023-02-26T18:08:45;3.67;;;2.73;;
7719;SDS011;3902;49.474;8.616;2023-02-26T18:11:12;2.60;;;2.00;;
7719;SDS011;3902;49.474;8.616;2023-02-26T18:13:39;1.80;;;1.63;;
7719;SDS011;3902;49.474;8.616;2023-02-26T18:16:05;2.60;;;2.20;;
7719;SDS011;3902;49.474;8.616;2023-02-26T18:18:36;2.20;;;2.00;;